Time;durP1;ratioP1;P1;durP2;ratioP2;P2;SDS_P1;SDS_P2;PMS_P1;PMS_P2;Temp;Humidity;BMP_temperature;BMP_pressure;BME280_temperature;BME280_humidity;BME280_pressure;Samples;Min_cycle;Max_cycle;Signal;HPM_P1;HPM_P2
2023/08/23 00:00:07;;;;;;;11.57;8.02;;;18.10;99.90;;;;;;5066807;28;20340;-62
2023/08/23 00:02:40;;;;;;;9.85;8.50;;;18.20;99.90;;;;;;5064776;28;20548;-64
2023/08/23 00:05:07;;;;;;;8.85;7.40;;;18.10;99.90;;;;;;5046464;28;20701;-63
2023/08/23 00:07:35;;;;;;;9.27;7.55;;;18.10;99.90;;;;;;5054623;28;20214;-64
2023/08/23 00:10:02;;;;;;;8.32;6.93;;;18.20;99.90;;;;;;5054695;28;20321;-64
2023/08/23 00:12:29;;;;;;;8.15;6.43;;;18.10;99.90;;;;;;5050544;28;20199;-64
2023/08/23 00:14:56;;;;;;;6.50;5.85;;;18.10;99.90;;;;;;5059209;28;20202;-64
2023/08/23 00:17:23;;;;;;;6.65;5.30;;;18.20;99.90;;;;;;5055249;28;20222;-63
2023/08/23 00:19:50;;;;;;;10.63;6.45;;;18.10;99.90;;;;;;5054842;28;20310;-64
2023/08/23 00:22:17;;;;;;;8.60;5.38;;;18.20;99.90;;;;;;5044272;28;20191;-63
2023/08/23 00:24:44;;;;;;;7.32;5.75;;;18.20;99.90;;;;;;5067206;28;20198;-64
2023/08/23 00:27:11;;;;;;;12.93;6.22;;;18.00;99.90;;;;;;5054761;28;20216;-64
2023/08/23 00:29:38;;;;;;;7.13;6.43;;;18.00;99.90;;;;;;5054510;28;20659;-63
2023/08/23 00:32:05;;;;;;;9.23;6.68;;;18.00;99.90;;;;;;5054688;28;20206;-66
2023/08/23 00:34:32;;;;;;;9.88;5.75;;;18.00;99.90;;;;;;5041290;28;20187;-64
2023/08/23 00:36:59;;;;;;;7.63;6.03;;;17.90;99.90;;;;;;5044806;28;20325;-64
2023/08/23 00:39:26;;;;;;;7.72;6.68;;;17.90;99.90;;;;;;5047110;28;20196;-63
2023/08/23 00:41:54;;;;;;;11.30;5.97;;;17.90;99.90;;;;;;5041697;28;20194;-63
2023/08/23 00:44:21;;;;;;;7.45;6.45;;;17.90;99.90;;;;;;5041822;28;20569;-64
2023/08/23 00:46:48;;;;;;;8.73;7.15;;;17.90;99.90;;;;;;5028306;28;20583;-63
2023/08/23 00:49:15;;;;;;;7.80;6.80;;;17.90;99.90;;;;;;5061677;28;20249;-64
2023/08/23 00:51:42;;;;;;;8.55;6.75;;;17.90;99.90;;;;;;5054088;28;20692;-65
2023/08/23 00:54:11;;;;;;;7.47;6.45;;;17.90;99.90;;;;;;5034414;28;20718;-65
2023/08/23 00:56:38;;;;;;;9.00;6.93;;;17.90;99.90;;;;;;5048045;28;20195;-66
2023/08/23 00:59:07;;;;;;;8.35;6.55;;;17.90;99.90;;;;;;5072133;28;20186;-67
2023/08/23 01:01:35;;;;;;;7.05;5.97;;;17.80;99.90;;;;;;5053628;28;20284;-66
2023/08/23 01:04:02;;;;;;;10.57;8.10;;;17.80;99.90;;;;;;5025890;28;20349;-66
2023/08/23 01:06:49;;;;;;;12.23;8.27;;;17.50;99.90;;;;;;5040161;28;20246;-67
2023/08/23 01:09:36;;;;;;;8.45;7.32;;;17.30;99.90;;;;;;5030135;28;20686;-68
2023/08/23 01:12:28;;;;;;;12.20;7.57;;;17.40;99.90;;;;;;5049472;28;20666;-62
2023/08/23 01:15:05;;;;;;;10.68;8.30;;;17.30;99.90;;;;;;5048611;28;20692;-62
2023/08/23 01:17:34;;;;;;;9.90;8.65;;;17.30;99.90;;;;;;5045438;28;20596;-62
2023/08/23 01:20:05;;;;;;;13.20;8.93;;;17.30;99.90;;;;;;5051593;28;20195;-62
2023/08/23 01:22:37;;;;;;;11.02;8.25;;;17.10;99.90;;;;;;5067632;28;20183;-62
2023/08/23 01:25:05;;;;;;;12.90;8.57;;;17.00;99.90;;;;;;5052952;28;20245;-65
2023/08/23 01:27:34;;;;;;;15.50;8.45;;;16.90;99.90;;;;;;5071654;28;20206;-70
2023/08/23 01:30:18;;;;;;;12.38;8.60;;;16.80;99.90;;;;;;5049397;28;20570;-62
2023/08/23 01:32:56;;;;;;;18.38;8.75;;;16.60;99.90;;;;;;5071794;28;20187;-64
2023/08/23 01:35:32;;;;;;;10.45;7.47;;;16.70;99.90;;;;;;5042129;28;20200;-62
2023/08/23 01:38:01;;;;;;;12.90;9.23;;;16.80;99.90;;;;;;5071800;28;20210;-62
2023/08/23 01:40:29;;;;;;;14.70;9.05;;;16.80;99.90;;;;;;5048211;28;20277;-63
2023/08/23 01:42:57;;;;;;;8.60;7.57;;;16.90;99.90;;;;;;5052847;28;20272;-62
2023/08/23 01:45:24;;;;;;;13.45;8.13;;;16.90;99.90;;;;;;5061462;28;20537;-62
2023/08/23 01:47:51;;;;;;;9.00;7.78;;;17.00;99.90;;;;;;5048608;28;20214;-63
2023/08/23 01:50:18;;;;;;;12.18;8.52;;;17.00;99.90;;;;;;5053413;28;20199;-63
2023/08/23 01:52:45;;;;;;;12.70;8.38;;;17.00;99.90;;;;;;5065913;28;20215;-62
2023/08/23 01:55:13;;;;;;;12.77;8.40;;;16.90;99.90;;;;;;5043634;28;20276;-63
2023/08/23 01:57:41;;;;;;;14.35;8.23;;;16.70;99.90;;;;;;5066480;28;20264;-62
2023/08/23 02:00:09;;;;;;;11.20;9.23;;;16.60;99.90;;;;;;5052431;28;20191;-62
2023/08/23 02:06:21;;;;;;;13.57;9.93;;;16.30;99.90;;;;;;5064392;28;20741;-61
2023/08/23 02:08:50;;;;;;;11.25;9.07;;;16.50;99.90;;;;;;5047883;28;20270;-61
2023/08/23 02:11:17;;;;;;;14.20;9.60;;;16.60;99.90;;;;;;5070945;28;20195;-61
2023/08/23 02:13:44;;;;;;;10.50;9.32;;;16.60;99.90;;;;;;5052322;28;20203;-61
2023/08/23 02:16:11;;;;;;;14.38;10.13;;;16.40;99.90;;;;;;5038853;28;20228;-64
2023/08/23 02:18:38;;;;;;;10.73;9.07;;;16.00;99.90;;;;;;5044927;28;20701;-63
2023/08/23 02:21:05;;;;;;;11.67;9.40;;;16.00;99.90;;;;;;5047983;28;20658;-64
2023/08/23 02:23:32;;;;;;;15.47;9.87;;;16.10;99.90;;;;;;5033424;28;20195;-64
2023/08/23 02:25:59;;;;;;;11.43;9.40;;;16.20;99.90;;;;;;5046958;28;20195;-63
2023/08/23 02:28:26;;;;;;;11.73;9.68;;;16.30;99.90;;;;;;5045229;28;20203;-64
2023/08/23 02:31:03;;;;;;;12.38;10.00;;;16.30;99.90;;;;;;5048452;28;20203;-66
2023/08/23 02:33:31;;;;;;;21.30;10.18;;;16.20;99.90;;;;;;5046309;28;20206;-66
2023/08/23 02:35:58;;;;;;;15.37;10.27;;;16.20;99.90;;;;;;5036226;28;20206;-66
2023/08/23 02:38:26;;;;;;;15.13;11.17;;;16.10;99.90;;;;;;5036440;28;20211;-64
2023/08/23 02:40:57;;;;;;;17.13;10.77;;;16.10;99.90;;;;;;5068993;28;20199;-64
2023/08/23 02:43:24;;;;;;;15.13;12.05;;;16.20;99.90;;;;;;5067095;28;20625;-64
2023/08/23 02:45:51;;;;;;;16.02;11.77;;;16.20;99.90;;;;;;5040037;28;20204;-64
2023/08/23 02:48:18;;;;;;;18.67;11.68;;;16.20;99.90;;;;;;5067961;28;20683;-68
2023/08/23 02:50:45;;;;;;;13.43;11.18;;;16.20;99.90;;;;;;5056618;28;20195;-64
2023/08/23 02:53:12;;;;;;;14.32;10.40;;;16.20;99.90;;;;;;5040171;28;20195;-67
2023/08/23 02:55:40;;;;;;;17.50;11.53;;;16.30;99.90;;;;;;5053598;28;20603;-64
2023/08/23 02:58:07;;;;;;;16.07;11.43;;;16.20;99.90;;;;;;5070056;28;20670;-64
2023/08/23 03:00:34;;;;;;;13.17;10.27;;;16.20;99.90;;;;;;5033047;28;20204;-64
2023/08/23 03:03:01;;;;;;;11.73;10.30;;;16.20;99.90;;;;;;5041543;28;20203;-63
2023/08/23 03:05:29;;;;;;;12.20;10.10;;;16.30;99.90;;;;;;5047805;28;20666;-63
2023/08/23 03:07:56;;;;;;;17.10;11.07;;;16.30;99.90;;;;;;5050603;28;20494;-63
2023/08/23 03:10:23;;;;;;;14.60;10.45;;;16.30;99.90;;;;;;5032457;28;20290;-63
2023/08/23 03:12:50;;;;;;;11.40;9.40;;;16.40;99.90;;;;;;5033047;28;20257;-66
2023/08/23 03:15:17;;;;;;;14.88;10.02;;;16.40;99.90;;;;;;5059175;28;20598;-63
2023/08/23 03:17:44;;;;;;;13.77;10.63;;;16.00;99.90;;;;;;5031976;28;20584;-63
2023/08/23 03:20:11;;;;;;;15.33;12.33;;;15.90;99.90;;;;;;5038730;28;20199;-66
2023/08/23 03:22:38;;;;;;;12.27;9.67;;;15.80;99.90;;;;;;5032081;28;20202;-62
2023/08/23 03:25:06;;;;;;;14.23;10.63;;;15.80;99.90;;;;;;5039644;28;20191;-61
2023/08/23 03:27:33;;;;;;;12.10;9.87;;;16.00;99.90;;;;;;5044925;28;20215;-63
2023/08/23 03:30:00;;;;;;;13.63;10.35;;;16.20;99.90;;;;;;5058346;28;20199;-61
2023/08/23 03:32:27;;;;;;;12.38;9.15;;;16.30;99.90;;;;;;5024084;28;20223;-61
2023/08/23 03:34:54;;;;;;;11.32;9.45;;;16.30;99.90;;;;;;5041198;28;20487;-61
2023/08/23 03:37:21;;;;;;;15.30;10.07;;;16.40;99.90;;;;;;5032895;28;20206;-67
2023/08/23 03:39:48;;;;;;;11.80;9.23;;;16.40;99.90;;;;;;5050038;28;20203;-60
2023/08/23 03:42:17;;;;;;;13.75;9.32;;;16.40;99.90;;;;;;5043416;28;20226;-60
2023/08/23 03:44:44;;;;;;;13.27;9.60;;;16.40;99.90;;;;;;5045179;28;20210;-60
2023/08/23 03:47:11;;;;;;;13.60;9.38;;;16.40;99.90;;;;;;5051697;28;20209;-61
2023/08/23 03:49:38;;;;;;;15.82;9.90;;;16.10;99.90;;;;;;5047104;28;20232;-62
2023/08/23 03:52:05;;;;;;;14.90;10.57;;;15.80;99.90;;;;;;5043218;28;20298;-61
2023/08/23 03:54:33;;;;;;;11.17;9.87;;;15.60;99.90;;;;;;5047106;28;20288;-62
2023/08/23 03:57:00;;;;;;;13.93;11.17;;;15.50;99.90;;;;;;5022861;28;21074;-71
2023/08/23 03:59:27;;;;;;;12.20;9.57;;;15.50;99.90;;;;;;5024708;28;20220;-61
2023/08/23 04:01:54;;;;;;;15.80;9.43;;;15.60;99.90;;;;;;5035764;28;20735;-62
2023/08/23 04:04:21;;;;;;;11.30;9.40;;;15.60;99.90;;;;;;5031943;28;20659;-62
2023/08/23 04:06:49;;;;;;;15.77;8.93;;;15.70;99.90;;;;;;5068577;28;20202;-61
2023/08/23 04:09:16;;;;;;;13.63;9.47;;;15.60;99.90;;;;;;5047440;28;20215;-61
2023/08/23 04:11:44;;;;;;;11.13;8.63;;;15.80;99.90;;;;;;5059725;28;20282;-61
2023/08/23 04:14:11;;;;;;;12.93;9.37;;;15.90;99.90;;;;;;5068956;28;20960;-62
2023/08/23 04:16:38;;;;;;;10.97;8.93;;;16.00;99.90;;;;;;5069462;28;20197;-61
2023/08/23 04:19:06;;;;;;;11.05;9.32;;;15.90;99.90;;;;;;5069796;28;20273;-62
2023/08/23 04:21:33;;;;;;;12.53;9.83;;;15.70;99.90;;;;;;5032131;28;20343;-61
2023/08/23 04:24:01;;;;;;;12.65;10.15;;;15.60;99.90;;;;;;5046734;28;20202;-60
2023/08/23 04:26:28;;;;;;;16.98;10.07;;;15.60;99.90;;;;;;5050383;28;20689;-61
2023/08/23 04:28:55;;;;;;;14.43;8.73;;;15.60;99.90;;;;;;5028109;28;20418;-60
2023/08/23 04:31:22;;;;;;;11.88;9.25;;;15.80;99.90;;;;;;5047190;28;20285;-61
2023/08/23 04:33:56;;;;;;;11.90;9.25;;;16.00;99.90;;;;;;5049881;28;20690;-62
2023/08/23 04:36:24;;;;;;;15.40;9.95;;;16.00;99.90;;;;;;5033145;28;20686;-64
2023/08/23 04:38:50;;;;;;;10.68;9.30;;;15.90;99.90;;;;;;5043241;28;20214;-62
2023/08/23 04:41:18;;;;;;;11.15;9.52;;;15.70;99.90;;;;;;5019483;28;20195;-64
2023/08/23 04:43:45;;;;;;;12.27;8.93;;;15.80;99.90;;;;;;5051514;28;20318;-65
2023/08/23 04:46:13;;;;;;;10.15;8.20;;;16.00;99.90;;;;;;5061438;28;20231;-64
2023/08/23 04:48:42;;;;;;;11.18;8.68;;;16.10;99.90;;;;;;5047720;28;20541;-64
2023/08/23 04:51:09;;;;;;;11.90;9.40;;;16.20;99.90;;;;;;5049584;28;20188;-64
2023/08/23 04:53:37;;;;;;;11.25;8.35;;;16.30;99.90;;;;;;5057635;28;20452;-64
2023/08/23 04:56:05;;;;;;;10.95;8.43;;;16.40;99.90;;;;;;5044699;28;20683;-63
2023/08/23 04:58:32;;;;;;;8.23;7.35;;;16.70;99.90;;;;;;5029432;28;20217;-63
2023/08/23 05:01:06;;;;;;;10.88;7.88;;;16.90;99.90;;;;;;5051545;28;20697;-64
2023/08/23 05:03:37;;;;;;;10.57;8.02;;;17.00;99.90;;;;;;5059756;28;20195;-64
2023/08/23 05:06:04;;;;;;;11.73;8.20;;;17.10;99.90;;;;;;5053533;28;20191;-64
2023/08/23 05:08:34;;;;;;;11.85;7.38;;;17.30;99.90;;;;;;5052530;28;20605;-67
2023/08/23 05:11:07;;;;;;;12.82;7.32;;;17.40;99.90;;;;;;5038631;28;20264;-67
2023/08/23 05:13:34;;;;;;;13.40;8.38;;;17.60;99.90;;;;;;5039659;28;20633;-66
2023/08/23 05:16:01;;;;;;;9.55;7.55;;;17.30;99.90;;;;;;5035234;28;21018;-64
2023/08/23 05:18:28;;;;;;;10.85;7.97;;;17.40;99.90;;;;;;5046093;28;20219;-65
2023/08/23 05:20:59;;;;;;;8.75;7.78;;;17.80;99.90;;;;;;5047432;28;20217;-64
2023/08/23 05:23:27;;;;;;;9.43;7.50;;;18.10;99.90;;;;;;5034785;28;20616;-64
2023/08/23 05:25:56;;;;;;;9.02;6.43;;;18.40;99.90;;;;;;5049918;28;20248;-67
2023/08/23 05:28:25;;;;;;;9.45;6.72;;;18.50;99.90;;;;;;5048854;28;20198;-68
2023/08/23 05:30:52;;;;;;;17.92;7.90;;;18.90;99.90;;;;;;5069068;28;20191;-67
2023/08/23 05:33:24;;;;;;;9.68;7.53;;;18.70;99.90;;;;;;5049573;28;20191;-64
2023/08/23 05:35:52;;;;;;;12.27;7.03;;;19.00;99.90;;;;;;5069272;28;20219;-65
2023/08/23 05:38:23;;;;;;;8.45;6.50;;;19.20;99.90;;;;;;5040536;28;20233;-64
2023/08/23 05:40:53;;;;;;;9.48;6.15;;;19.40;99.90;;;;;;5034689;28;20241;-65
2023/08/23 05:43:20;;;;;;;8.93;6.13;;;19.50;99.90;;;;;;5064393;28;20245;-66
2023/08/23 05:45:50;;;;;;;8.48;6.65;;;19.20;99.90;;;;;;5042712;28;20640;-66
2023/08/23 05:48:17;;;;;;;7.55;6.53;;;19.10;99.90;;;;;;5051795;28;20203;-67
2023/08/23 05:50:44;;;;;;;9.38;6.78;;;18.70;99.90;;;;;;5036196;28;20198;-69
2023/08/23 05:53:18;;;;;;;9.57;7.10;;;18.60;99.90;;;;;;5049824;28;20199;-66
2023/08/23 05:55:47;;;;;;;8.20;7.32;;;18.50;99.90;;;;;;5048345;28;20199;-66
2023/08/23 05:58:18;;;;;;;9.32;7.43;;;18.70;99.90;;;;;;5050241;28;20566;-64
2023/08/23 06:00:47;;;;;;;8.60;6.53;;;19.60;99.90;;;;;;5052789;28;20280;-71
2023/08/23 06:03:15;;;;;;;8.95;6.65;;;21.50;99.90;;;;;;5068203;28;20536;-65
2023/08/23 06:05:43;;;;;;;8.15;6.32;;;22.20;99.90;;;;;;5047191;28;20588;-67
2023/08/23 06:08:10;;;;;;;9.05;6.15;;;23.90;99.90;;;;;;5070209;28;20211;-66
2023/08/23 06:10:37;;;;;;;10.55;6.57;;;24.50;99.90;;;;;;5049797;28;20917;-65
2023/08/23 06:13:07;;;;;;;10.85;5.80;;;25.10;99.90;;;;;;5037661;28;20681;-68
2023/08/23 06:15:34;;;;;;;16.98;6.15;;;26.70;99.90;;;;;;5036516;28;20191;-65
2023/08/23 06:18:01;;;;;;;7.75;5.32;;;26.60;99.90;;;;;;5050445;28;20294;-66
2023/08/23 06:20:28;;;;;;;8.15;5.28;;;28.10;99.90;;;;;;5049051;28;20286;-68
2023/08/23 06:22:57;;;;;;;7.40;5.60;;;29.20;99.90;;;;;;5033002;28;20203;-65
2023/08/23 06:25:24;;;;;;;6.53;5.57;;;30.50;99.90;;;;;;5043277;28;20621;-65
2023/08/23 06:27:51;;;;;;;7.03;5.90;;;30.90;99.90;;;;;;5048559;28;20636;-65
2023/08/23 06:30:18;;;;;;;6.53;5.18;;;30.80;99.90;;;;;;5037229;28;20199;-65
2023/08/23 06:32:46;;;;;;;6.72;6.07;;;31.10;99.90;;;;;;5068617;28;20202;-65
2023/08/23 06:35:15;;;;;;;8.63;5.93;;;31.00;99.90;;;;;;5059127;28;20570;-65
2023/08/23 06:37:42;;;;;;;8.02;5.80;;;28.50;99.90;;;;;;5029698;28;20642;-65
2023/08/23 06:40:13;;;;;;;7.57;6.20;;;29.70;99.90;;;;;;5042459;28;20210;-65
2023/08/23 06:42:41;;;;;;;8.35;5.72;;;29.20;99.90;;;;;;5067095;28;20201;-65
2023/08/23 06:45:09;;;;;;;8.13;6.03;;;29.80;99.90;;;;;;5059460;28;20583;-65
2023/08/23 06:47:38;;;;;;;7.18;6.00;;;29.00;99.90;;;;;;5020675;28;20199;-65
2023/08/23 06:50:06;;;;;;;6.45;5.78;;;30.10;99.90;;;;;;5047172;28;20213;-65
2023/08/23 06:52:38;;;;;;;10.55;6.75;;;31.70;99.90;;;;;;5043961;28;20251;-65
2023/08/23 06:55:06;;;;;;;6.63;6.03;;;30.00;99.90;;;;;;5060534;28;20230;-65
2023/08/23 06:57:33;;;;;;;7.07;6.38;;;32.00;99.90;;;;;;5048606;28;20848;-65
2023/08/23 07:00:00;;;;;;;8.02;5.97;;;28.60;99.90;;;;;;5065271;28;20721;-65
2023/08/23 07:02:27;;;;;;;8.27;6.60;;;27.70;99.90;;;;;;5055962;28;20241;-65
2023/08/23 07:04:54;;;;;;;8.50;7.38;;;26.10;99.90;;;;;;5058183;28;20199;-65
2023/08/23 07:07:22;;;;;;;8.27;6.60;;;25.20;99.90;;;;;;5042389;28;20525;-66
2023/08/23 07:09:50;;;;;;;10.85;6.70;;;25.50;99.90;;;;;;5036944;28;20203;-66
2023/08/23 07:12:17;;;;;;;9.25;6.70;;;25.60;99.90;;;;;;5042449;28;20257;-66
2023/08/23 07:14:49;;;;;;;9.35;6.20;;;24.70;99.90;;;;;;5046484;28;20198;-66
2023/08/23 07:17:19;;;;;;;8.88;6.38;;;24.70;99.90;;;;;;5046643;28;20195;-65
2023/08/23 07:19:48;;;;;;;7.97;5.63;;;23.90;99.90;;;;;;5047126;28;20265;-66
2023/08/23 07:22:15;;;;;;;8.95;6.18;;;24.00;99.90;;;;;;5021595;28;20560;-65
2023/08/23 07:24:42;;;;;;;7.00;5.43;;;23.80;99.90;;;;;;5044834;28;20586;-66
2023/08/23 07:27:09;;;;;;;6.35;5.30;;;24.10;99.90;;;;;;5042070;28;20190;-66
2023/08/23 07:29:36;;;;;;;9.13;5.47;;;25.20;99.90;;;;;;5043657;28;20693;-66
2023/08/23 07:32:04;;;;;;;10.65;6.43;;;26.10;99.90;;;;;;5064102;28;20222;-66
2023/08/23 07:34:31;;;;;;;8.32;6.00;;;24.20;99.90;;;;;;5037542;28;20191;-65
2023/08/23 07:36:58;;;;;;;9.52;6.25;;;23.90;99.90;;;;;;5043558;28;20264;-65
2023/08/23 07:39:27;;;;;;;10.50;5.60;;;24.00;99.90;;;;;;5033444;28;20198;-65
2023/08/23 07:41:54;;;;;;;11.55;6.10;;;24.70;99.90;;;;;;5049578;28;20784;-65
2023/08/23 07:44:21;;;;;;;11.63;7.22;;;25.30;99.90;;;;;;5037430;28;20248;-66
2023/08/23 07:46:52;;;;;;;9.48;6.10;;;26.20;99.90;;;;;;5049520;28;20206;-66
2023/08/23 07:49:19;;;;;;;8.13;4.72;;;28.70;99.90;;;;;;5060159;28;20226;-66
2023/08/23 07:51:46;;;;;;;7.22;4.65;;;31.70;99.90;;;;;;5063527;28;20592;-64
2023/08/23 07:54:13;;;;;;;10.40;5.60;;;34.70;99.90;;;;;;5042990;28;20314;-65
2023/08/23 07:56:41;;;;;;;12.13;5.20;;;36.40;99.90;;;;;;5045303;28;20195;-64
2023/08/23 07:59:08;;;;;;;5.30;4.80;;;34.10;99.90;;;;;;5038055;28;20253;-64
2023/08/23 08:01:34;;;;;;;10.23;5.15;;;33.10;99.90;;;;;;5046865;28;20548;-66
2023/08/23 08:04:02;;;;;;;6.03;4.85;;;35.00;99.90;;;;;;5050628;28;20191;-64
2023/08/23 08:06:29;;;;;;;8.07;5.40;;;35.80;99.90;;;;;;5018974;28;20196;-64
2023/08/23 08:08:56;;;;;;;6.97;4.93;;;31.90;99.90;;;;;;5055012;28;20195;-64
2023/08/23 08:11:23;;;;;;;7.50;5.35;;;31.80;99.90;;;;;;5041524;28;20208;-64
2023/08/23 08:13:50;;;;;;;6.25;4.90;;;32.80;99.90;;;;;;5064165;28;20634;-64
2023/08/23 08:16:17;;;;;;;7.63;5.43;;;31.50;99.90;;;;;;5049527;28;20261;-64
2023/08/23 08:18:44;;;;;;;5.97;4.93;;;31.90;99.90;;;;;;5042108;28;20199;-65
2023/08/23 08:21:11;;;;;;;5.68;5.00;;;34.00;99.90;;;;;;5064735;28;20190;-65
2023/08/23 08:23:38;;;;;;;6.20;4.93;;;38.20;99.90;;;;;;5043931;28;20191;-66
2023/08/23 08:26:06;;;;;;;7.55;5.35;;;40.00;99.90;;;;;;5046383;28;20622;-66
2023/08/23 08:28:34;;;;;;;5.72;4.80;;;40.60;99.90;;;;;;5058832;28;20709;-66
2023/08/23 08:31:00;;;;;;;8.38;5.50;;;38.90;99.90;;;;;;5028804;28;20199;-65
2023/08/23 08:33:27;;;;;;;9.00;5.65;;;40.00;99.90;;;;;;5062524;28;20195;-66
2023/08/23 08:35:54;;;;;;;7.38;5.47;;;37.40;99.90;;;;;;5044855;28;20202;-66
2023/08/23 08:38:22;;;;;;;14.57;6.18;;;36.50;99.90;;;;;;5058535;28;20612;-66
2023/08/23 08:40:50;;;;;;;8.00;5.72;;;38.90;99.90;;;;;;5059565;28;20234;-66
2023/08/23 08:43:18;;;;;;;8.98;5.63;;;37.90;99.90;;;;;;5044503;28;20325;-65
2023/08/23 08:45:45;;;;;;;10.68;5.47;;;39.60;99.90;;;;;;5065031;28;20217;-66
2023/08/23 08:48:12;;;;;;;7.93;5.38;;;41.40;99.90;;;;;;5068456;28;20607;-66
2023/08/23 08:50:42;;;;;;;8.55;5.50;;;40.80;99.90;;;;;;5052346;28;20650;-66
2023/08/23 08:53:15;;;;;;;7.63;5.80;;;38.00;99.90;;;;;;5037051;28;20190;-66
2023/08/23 08:55:44;;;;;;;5.95;5.22;;;36.80;99.90;;;;;;5069868;28;20191;-66
2023/08/23 08:58:15;;;;;;;9.50;5.32;;;40.80;99.90;;;;;;5021713;28;20194;-66
2023/08/23 09:00:43;;;;;;;8.73;6.05;;;42.30;99.90;;;;;;5058566;28;20210;-66
2023/08/23 09:03:10;;;;;;;10.88;6.30;;;43.50;99.90;;;;;;5034710;28;20222;-67
2023/08/23 09:05:38;;;;;;;8.25;5.40;;;45.00;99.90;;;;;;5059293;28;20395;-64
2023/08/23 09:08:05;;;;;;;6.65;5.95;;;43.20;99.90;;;;;;5067238;28;20233;-64
2023/08/23 09:10:32;;;;;;;7.63;6.80;;;41.30;99.90;;;;;;5063165;28;20194;-63
2023/08/23 09:12:59;;;;;;;6.70;5.90;;;36.30;99.90;;;;;;5059303;28;20240;-64
2023/08/23 09:15:26;;;;;;;8.55;5.38;;;36.50;99.90;;;;;;5069555;28;20251;-62
2023/08/23 09:17:54;;;;;;;9.07;5.93;;;40.50;99.90;;;;;;5044081;28;20771;-62
2023/08/23 09:20:22;;;;;;;8.27;5.75;;;42.80;99.90;;;;;;5056397;28;20237;-62
2023/08/23 09:22:51;;;;;;;7.35;5.53;;;44.10;99.90;;;;;;5068796;28;20250;-63
2023/08/23 09:25:18;;;;;;;7.68;5.30;;;44.90;99.90;;;;;;5073650;28;20186;-62
2023/08/23 09:27:45;;;;;;;6.85;5.63;;;45.90;99.90;;;;;;5066523;28;20544;-65
2023/08/23 09:30:13;;;;;;;8.52;5.22;;;44.20;99.90;;;;;;5063839;28;20190;-64
2023/08/23 09:32:42;;;;;;;7.35;5.82;;;40.40;99.90;;;;;;5062789;28;20202;-64
2023/08/23 09:35:17;;;;;;;8.65;5.65;;;37.10;99.90;;;;;;5066148;28;20311;-64
2023/08/23 09:37:45;;;;;;;7.22;5.47;;;34.80;99.90;;;;;;5035762;28;20712;-64
2023/08/23 09:40:21;;;;;;;11.32;6.63;;;36.00;99.90;;;;;;5049421;28;20211;-64
2023/08/23 09:42:50;;;;;;;8.52;5.75;;;36.60;99.90;;;;;;5050476;28;20241;-66
2023/08/23 09:45:19;;;;;;;9.93;5.30;;;33.90;99.90;;;;;;5045731;28;20591;-70
2023/08/23 09:47:51;;;;;;;7.05;4.85;;;36.30;99.90;;;;;;5033204;28;20195;-71
2023/08/23 09:50:20;;;;;;;6.93;5.40;;;38.40;99.90;;;;;;5042895;28;20669;-69
2023/08/23 09:53:00;;;;;;;10.35;5.95;;;36.60;99.90;;;;;;5069360;28;20203;-71
2023/08/23 09:55:29;;;;;;;7.85;5.20;;;38.00;99.90;;;;;;5046964;28;20760;-70
2023/08/23 09:57:57;;;;;;;6.95;4.50;;;39.20;99.90;;;;;;5043333;28;20202;-71
2023/08/23 10:00:25;;;;;;;7.00;5.35;;;40.20;99.90;;;;;;5065462;28;20373;-70
2023/08/23 10:02:53;;;;;;;6.72;5.07;;;40.50;99.90;;;;;;5048611;28;20321;-70
2023/08/23 10:05:20;;;;;;;7.10;5.43;;;39.70;99.90;;;;;;5033426;28;20204;-70
2023/08/23 10:07:55;;;;;;;10.35;5.72;;;37.60;99.90;;;;;;5057571;28;20196;-68
2023/08/23 10:10:22;;;;;;;5.65;5.10;;;36.70;99.90;;;;;;5035812;28;20572;-69
2023/08/23 10:12:54;;;;;;;6.10;4.70;;;40.10;99.90;;;;;;5048285;28;20260;-71
2023/08/23 10:15:31;;;;;;;9.75;5.20;;;42.20;99.90;;;;;;5062024;28;20187;-70
2023/08/23 10:18:01;;;;;;;6.10;4.78;;;40.60;99.90;;;;;;5050369;28;20520;-70
2023/08/23 10:20:32;;;;;;;7.78;5.22;;;36.10;99.90;;;;;;5022440;28;20207;-70
2023/08/23 10:22:59;;;;;;;6.45;4.70;;;37.90;99.90;;;;;;5030302;28;20264;-70
2023/08/23 10:25:26;;;;;;;9.50;5.18;;;40.70;99.90;;;;;;5027455;28;20192;-70
2023/08/23 10:27:55;;;;;;;7.75;6.13;;;42.30;99.90;;;;;;5048168;28;20199;-70
2023/08/23 10:30:24;;;;;;;5.40;4.88;;;43.20;99.90;;;;;;5047010;28;20206;-70
2023/08/23 10:32:53;;;;;;;6.30;5.70;;;43.20;99.90;;;;;;5038106;28;20647;-69
2023/08/23 10:35:26;;;;;;;6.15;4.72;;;42.20;99.90;;;;;;5052922;28;20190;-69
2023/08/23 10:37:53;;;;;;;7.18;6.03;;;41.10;99.90;;;;;;5060918;28;20221;-71
2023/08/23 10:40:22;;;;;;;8.32;5.25;;;39.60;99.90;;;;;;5035434;28;20253;-69
2023/08/23 10:42:50;;;;;;;8.45;5.35;;;38.40;99.90;;;;;;5048441;28;20293;-69
2023/08/23 10:45:18;;;;;;;7.68;5.00;;;39.90;99.90;;;;;;5052340;28;20399;-69
2023/08/23 10:47:49;;;;;;;7.28;5.40;;;41.10;99.90;;;;;;5039580;28;20868;-68
2023/08/23 10:50:20;;;;;;;5.35;4.93;;;40.80;99.90;;;;;;5039649;28;20199;-69
2023/08/23 10:52:51;;;;;;;9.85;6.00;;;38.50;99.90;;;;;;5034863;28;20260;-69
2023/08/23 10:55:18;;;;;;;7.03;5.22;;;38.20;99.90;;;;;;5049921;28;20226;-70
2023/08/23 10:57:48;;;;;;;6.40;5.32;;;37.00;99.90;;;;;;5040316;28;20512;-69
2023/08/23 11:00:16;;;;;;;7.43;5.13;;;36.50;99.90;;;;;;5054286;28;20206;-68
2023/08/23 11:02:43;;;;;;;6.03;5.43;;;37.20;99.90;;;;;;5022056;28;20631;-67
2023/08/23 11:05:10;;;;;;;10.52;6.03;;;38.20;99.90;;;;;;5033737;28;20695;-67
2023/08/23 11:07:38;;;;;;;6.65;5.90;;;38.50;99.90;;;;;;5034618;28;20207;-68
2023/08/23 11:10:08;;;;;;;6.75;5.95;;;39.50;99.90;;;;;;5053034;28;20199;-70
2023/08/23 11:12:38;;;;;;;6.90;5.57;;;39.60;99.90;;;;;;5058659;28;20194;-68
2023/08/23 11:15:05;;;;;;;9.13;6.88;;;40.00;99.90;;;;;;5063166;28;20197;-69
2023/08/23 11:17:33;;;;;;;8.10;6.00;;;36.80;99.90;;;;;;5039367;28;20195;-69
2023/08/23 11:20:01;;;;;;;5.72;5.20;;;36.90;99.90;;;;;;5053826;28;20658;-68
2023/08/23 11:22:28;;;;;;;10.23;5.68;;;37.60;99.90;;;;;;5049475;28;20191;-70
2023/08/23 11:24:57;;;;;;;5.50;5.00;;;39.30;99.90;;;;;;5029028;28;20187;-70
2023/08/23 11:27:24;;;;;;;7.55;5.40;;;39.60;99.90;;;;;;5035268;28;20218;-71
2023/08/23 11:29:52;;;;;;;7.47;5.28;;;39.00;99.90;;;;;;5052712;28;20203;-69
2023/08/23 11:32:19;;;;;;;7.88;5.18;;;38.20;99.90;;;;;;5030072;28;20237;-70
2023/08/23 11:34:46;;;;;;;6.80;5.10;;;38.80;99.90;;;;;;5042038;28;20195;-70
2023/08/23 11:37:13;;;;;;;5.60;5.10;;;39.50;99.90;;;;;;5046505;28;20206;-69
2023/08/23 11:39:40;;;;;;;5.90;5.25;;;40.10;99.90;;;;;;5029418;28;20286;-69
2023/08/23 11:42:07;;;;;;;6.13;4.57;;;36.90;99.90;;;;;;5034665;28;20285;-69
2023/08/23 11:44:34;;;;;;;6.45;4.53;;;34.90;99.90;;;;;;5012251;28;20227;-69
2023/08/23 11:47:02;;;;;;;4.78;4.32;;;35.00;99.90;;;;;;5032115;28;20199;-68
2023/08/23 11:49:29;;;;;;;4.97;4.43;;;36.50;99.90;;;;;;5028720;28;20207;-68
2023/08/23 11:51:58;;;;;;;6.43;4.63;;;37.60;99.90;;;;;;5024155;28;20243;-67
2023/08/23 11:54:25;;;;;;;5.25;4.75;;;38.80;99.90;;;;;;5050662;28;20254;-71
2023/08/23 11:56:53;;;;;;;4.78;4.35;;;38.30;99.90;;;;;;5037427;28;20669;-71
2023/08/23 11:59:21;;;;;;;4.88;4.10;;;37.80;99.90;;;;;;5055598;28;20649;-71
2023/08/23 12:01:48;;;;;;;4.53;4.13;;;36.90;99.90;;;;;;5043388;28;20215;-72
2023/08/23 12:04:17;;;;;;;6.47;4.47;;;37.50;99.90;;;;;;5060779;28;20204;-72
2023/08/23 12:06:44;;;;;;;5.13;4.50;;;37.30;99.90;;;;;;5067349;28;20303;-70
2023/08/23 12:09:11;;;;;;;4.50;4.13;;;35.50;99.90;;;;;;5036762;28;20235;-71
2023/08/23 12:11:39;;;;;;;4.40;4.00;;;35.20;99.90;;;;;;5053623;28;20222;-70
2023/08/23 12:14:06;;;;;;;5.78;4.60;;;35.10;99.90;;;;;;5034392;28;20202;-70
2023/08/23 12:16:34;;;;;;;7.30;4.10;;;34.30;99.90;;;;;;5035499;28;20198;-70
2023/08/23 12:19:02;;;;;;;4.68;4.28;;;34.80;99.90;;;;;;5039059;28;20198;-71
2023/08/23 12:21:48;;;;;;;5.20;4.60;;;34.80;99.90;;;;;;5026653;28;20229;-71
2023/08/23 12:24:15;;;;;;;5.50;4.47;;;33.30;99.90;;;;;;5057597;28;20635;-71
2023/08/23 12:26:43;;;;;;;8.63;4.50;;;32.20;99.90;;;;;;5046885;28;20664;-71
2023/08/23 12:29:10;;;;;;;5.40;4.40;;;32.40;99.90;;;;;;5059684;28;20707;-70
2023/08/23 12:31:37;;;;;;;5.75;4.43;;;33.40;99.90;;;;;;5040898;28;20213;-70
2023/08/23 12:34:05;;;;;;;5.53;4.78;;;33.30;99.90;;;;;;5042537;28;20667;-70
2023/08/23 12:36:32;;;;;;;6.70;4.78;;;32.40;99.90;;;;;;5048870;28;20194;-72
2023/08/23 12:39:00;;;;;;;6.20;5.13;;;31.20;99.90;;;;;;5023172;28;20253;-72
2023/08/23 12:41:27;;;;;;;5.03;4.63;;;31.10;99.90;;;;;;5049818;28;20294;-70
2023/08/23 12:43:54;;;;;;;5.70;5.20;;;31.90;99.90;;;;;;5051724;28;20215;-69
2023/08/23 12:46:21;;;;;;;5.05;4.18;;;32.50;99.90;;;;;;5048676;28;20200;-70
2023/08/23 12:48:48;;;;;;;5.03;4.43;;;32.80;99.90;;;;;;5034713;28;20710;-70
2023/08/23 12:51:16;;;;;;;4.70;4.20;;;32.40;99.90;;;;;;5056828;28;20230;-69